Time;durP1;ratioP1;P1;durP2;ratioP2;P2;SDS_P1;SDS_P2;PMS_P1;PMS_P2;Temp;Humidity;BMP_temperature;BMP_pressure;BME280_temperature;BME280_humidity;BME280_pressure;Samples;Min_cycle;Max_cycle;Signal;HPM_P1;HPM_P2
2023/09/29 00:00:35;;;;;;;79.45;75.43;;;;;;;;;;5041945;28;20538;-63
2023/09/29 00:03:01;;;;;;;81.97;77.90;;;;;;;;;;5040512;28;20029;-63
2023/09/29 00:05:27;;;;;;;85.30;80.93;;;;;;;;;;5043514;28;20036;-62
2023/09/29 00:07:53;;;;;;;85.80;81.00;;;;;;;;;;5043626;28;20036;-63
2023/09/29 00:10:20;;;;;;;88.43;84.03;;;;;;;;;;5044277;28;20490;-63
2023/09/29 00:12:48;;;;;;;85.72;81.43;;;;;;;;;;5043875;28;20463;-63
2023/09/29 00:15:15;;;;;;;93.35;88.70;;;;;;;;;;5043674;28;20420;-63
2023/09/29 00:17:41;;;;;;;89.50;84.97;;;;;;;;;;5046849;28;20655;-60
2023/09/29 00:20:26;;;;;;;91.30;86.60;;;;;;;;;;5046880;28;20037;-60
2023/09/29 00:22:52;;;;;;;81.68;77.57;;;;;;;;;;5048911;28;20025;-60
2023/09/29 00:25:18;;;;;;;84.50;80.25;;;;;;;;;;5046050;28;20797;-60
2023/09/29 00:27:44;;;;;;;86.93;82.57;;;;;;;;;;5047751;28;20469;-60
2023/09/29 00:30:12;;;;;;;75.55;71.72;;;;;;;;;;5045773;28;20033;-61
2023/09/29 00:32:43;;;;;;;80.35;76.28;;;;;;;;;;5044493;28;20052;-61
2023/09/29 00:35:11;;;;;;;74.20;70.50;;;;;;;;;;5047658;28;20033;-61
2023/09/29 00:37:37;;;;;;;73.60;69.95;;;;;;;;;;5028775;28;20029;-60
2023/09/29 00:40:11;;;;;;;84.45;80.22;;;;;;;;;;5046374;28;20074;-61
2023/09/29 00:42:36;;;;;;;78.22;74.25;;;;;;;;;;5045717;28;20491;-61
2023/09/29 00:45:03;;;;;;;83.20;78.97;;;;;;;;;;5044407;28;20040;-61
2023/09/29 00:47:29;;;;;;;83.53;79.15;;;;;;;;;;5045700;28;20544;-60
2023/09/29 00:49:54;;;;;;;82.05;77.95;;;;;;;;;;5045365;28;20029;-61
2023/09/29 00:52:23;;;;;;;81.30;77.18;;;;;;;;;;5046511;28;20109;-61
2023/09/29 00:54:50;;;;;;;79.63;75.57;;;;;;;;;;5043176;28;20043;-61
2023/09/29 00:57:16;;;;;;;80.57;76.47;;;;;;;;;;5043881;28;20052;-63
2023/09/29 00:59:43;;;;;;;79.93;75.78;;;;;;;;;;5045620;28;20028;-62
2023/09/29 01:02:10;;;;;;;79.72;75.70;;;;;;;;;;5045133;28;20034;-61
2023/09/29 01:04:36;;;;;;;83.20;76.38;;;;;;;;;;5046618;28;20036;-61
2023/09/29 01:07:04;;;;;;;81.50;77.43;;;;;;;;;;5045833;28;20424;-61
2023/09/29 01:09:30;;;;;;;78.50;74.57;;;;;;;;;;5044979;28;20060;-61
2023/09/29 01:11:55;;;;;;;69.75;66.25;;;;;;;;;;5044969;28;20068;-61
2023/09/29 01:14:21;;;;;;;75.43;71.60;;;;;;;;;;5042266;28;20344;-61
2023/09/29 01:16:46;;;;;;;74.80;70.90;;;;;;;;;;5043233;28;20033;-61
2023/09/29 01:19:12;;;;;;;78.25;74.30;;;;;;;;;;5048412;28;20033;-61
2023/09/29 01:21:39;;;;;;;75.22;71.40;;;;;;;;;;5040200;28;20097;-61
2023/09/29 01:24:07;;;;;;;74.65;70.90;;;;;;;;;;5043848;28;20036;-60
2023/09/29 01:26:33;;;;;;;67.75;64.20;;;;;;;;;;5041130;28;20154;-60
2023/09/29 01:28:58;;;;;;;72.75;69.05;;;;;;;;;;5044083;28;20128;-61
2023/09/29 01:31:24;;;;;;;70.53;66.97;;;;;;;;;;5042882;28;20057;-61
2023/09/29 01:33:49;;;;;;;70.85;67.28;;;;;;;;;;5041177;28;20037;-61
2023/09/29 01:36:14;;;;;;;68.60;65.10;;;;;;;;;;5045503;28;20040;-61
2023/09/29 01:38:40;;;;;;;67.72;64.32;;;;;;;;;;5044165;28;20037;-61
2023/09/29 01:41:05;;;;;;;65.05;61.78;;;;;;;;;;5045213;28;20075;-61
2023/09/29 01:43:31;;;;;;;59.38;56.35;;;;;;;;;;5044197;28;20665;-61
2023/09/29 01:45:56;;;;;;;62.42;59.20;;;;;;;;;;5043140;28;20043;-61
2023/09/29 01:48:22;;;;;;;69.30;65.75;;;;;;;;;;5045993;28;20041;-61
2023/09/29 01:50:47;;;;;;;69.47;65.97;;;;;;;;;;5043271;28;20043;-61
2023/09/29 01:53:12;;;;;;;66.57;63.25;;;;;;;;;;5042571;28;20036;-61
2023/09/29 01:55:39;;;;;;;60.10;56.75;;;;;;;;;;5045338;28;20047;-61
2023/09/29 01:58:05;;;;;;;58.17;55.25;;;;;;;;;;5042204;28;20094;-61
2023/09/29 02:00:30;;;;;;;62.33;59.00;;;;;;;;;;5043465;28;20037;-61
2023/09/29 02:02:56;;;;;;;63.55;60.22;;;;;;;;;;5042119;28;20033;-61
2023/09/29 02:05:22;;;;;;;62.75;59.60;;;;;;;;;;5041594;28;20059;-61
2023/09/29 02:07:49;;;;;;;58.13;55.17;;;;;;;;;;5042916;28;20025;-60
2023/09/29 02:10:20;;;;;;;59.85;56.70;;;;;;;;;;5044607;28;20045;-61
2023/09/29 02:12:54;;;;;;;56.53;53.55;;;;;;;;;;5040610;28;20146;-61
2023/09/29 02:15:19;;;;;;;51.70;49.10;;;;;;;;;;5043388;28;20455;-62
2023/09/29 02:17:47;;;;;;;54.75;51.88;;;;;;;;;;5043934;28;20044;-60
2023/09/29 02:20:21;;;;;;;54.25;51.50;;;;;;;;;;5044142;28;20032;-61
2023/09/29 02:22:48;;;;;;;50.05;47.50;;;;;;;;;;5044287;28;20172;-60
2023/09/29 02:25:15;;;;;;;56.85;53.80;;;;;;;;;;5043579;28;20041;-61
2023/09/29 02:27:41;;;;;;;54.50;51.38;;;;;;;;;;5044149;28;20056;-61
2023/09/29 02:30:10;;;;;;;53.80;51.05;;;;;;;;;;5042399;28;20367;-60
2023/09/29 02:32:41;;;;;;;61.42;58.25;;;;;;;;;;5041417;28;20029;-60
2023/09/29 02:35:08;;;;;;;54.80;52.03;;;;;;;;;;5043224;28;20033;-61
2023/09/29 02:37:33;;;;;;;57.88;54.95;;;;;;;;;;5042355;28;20084;-60
2023/09/29 02:39:59;;;;;;;52.83;49.97;;;;;;;;;;5042655;28;20072;-61
2023/09/29 02:42:24;;;;;;;61.95;58.83;;;;;;;;;;5042279;28;20048;-60
2023/09/29 02:44:50;;;;;;;65.57;62.10;;;;;;;;;;5042567;28;20040;-60
2023/09/29 02:47:15;;;;;;;69.10;65.57;;;;;;;;;;5046262;28;20052;-60
2023/09/29 02:49:40;;;;;;;63.28;59.92;;;;;;;;;;5043485;28;20029;-61
2023/09/29 02:52:06;;;;;;;60.63;57.58;;;;;;;;;;5040269;28;20036;-61
2023/09/29 02:54:32;;;;;;;60.47;57.42;;;;;;;;;;5044498;28;20450;-61
2023/09/29 02:56:58;;;;;;;62.22;59.10;;;;;;;;;;5042552;28;20028;-60
2023/09/29 02:59:24;;;;;;;63.15;59.90;;;;;;;;;;5043612;28;20037;-61
2023/09/29 03:01:50;;;;;;;64.18;60.88;;;;;;;;;;5042689;28;20042;-61
2023/09/29 03:04:15;;;;;;;63.47;60.30;;;;;;;;;;5041184;28;20047;-61
2023/09/29 03:06:41;;;;;;;67.07;63.67;;;;;;;;;;5040147;28;20068;-61
2023/09/29 03:09:10;;;;;;;64.40;61.13;;;;;;;;;;5043482;28;20035;-61
2023/09/29 03:11:39;;;;;;;56.55;53.67;;;;;;;;;;5041273;28;20032;-61
2023/09/29 03:14:05;;;;;;;49.10;46.60;;;;;;;;;;5040190;28;20043;-61
2023/09/29 03:16:30;;;;;;;57.25;54.30;;;;;;;;;;5040420;28;20116;-60
2023/09/29 03:18:55;;;;;;;53.28;50.22;;;;;;;;;;5045214;28;20048;-60
2023/09/29 03:21:21;;;;;;;54.40;51.65;;;;;;;;;;5040821;28;20133;-61
2023/09/29 03:23:46;;;;;;;60.42;57.30;;;;;;;;;;5042520;28;20041;-61
2023/09/29 03:26:22;;;;;;;62.25;58.83;;;;;;;;;;5040305;28;20033;-61
2023/09/29 03:28:49;;;;;;;56.33;53.47;;;;;;;;;;5037006;28;20028;-61
2023/09/29 03:31:15;;;;;;;61.50;58.40;;;;;;;;;;5040597;28;20099;-61
2023/09/29 03:33:42;;;;;;;59.92;56.90;;;;;;;;;;5038747;28;20022;-60
2023/09/29 03:36:08;;;;;;;67.65;64.20;;;;;;;;;;5042646;28;20037;-61
2023/09/29 03:38:33;;;;;;;63.78;60.53;;;;;;;;;;5041425;28;20037;-61
2023/09/29 03:40:58;;;;;;;56.67;53.72;;;;;;;;;;5036478;28;20036;-60
2023/09/29 03:43:24;;;;;;;58.42;55.47;;;;;;;;;;5047696;28;20029;-61
2023/09/29 03:45:50;;;;;;;55.13;52.30;;;;;;;;;;5046725;28;20164;-60
2023/09/29 03:48:17;;;;;;;51.42;48.78;;;;;;;;;;5042379;28;20071;-61
2023/09/29 03:50:43;;;;;;;51.28;48.65;;;;;;;;;;5044020;28;20040;-60
2023/09/29 03:53:09;;;;;;;54.88;52.10;;;;;;;;;;5044417;28;20249;-60
2023/09/29 03:55:35;;;;;;;52.78;50.05;;;;;;;;;;5042477;28;20052;-60
2023/09/29 03:58:00;;;;;;;48.75;46.25;;;;;;;;;;5043560;28;20059;-61
2023/09/29 04:00:26;;;;;;;47.25;44.85;;;;;;;;;;5044338;28;20036;-61
2023/09/29 04:02:52;;;;;;;45.70;43.30;;;;;;;;;;5045031;28;20040;-61
2023/09/29 04:05:18;;;;;;;48.67;46.13;;;;;;;;;;5046898;28;20030;-61
2023/09/29 04:07:44;;;;;;;45.78;43.40;;;;;;;;;;5043789;28;20378;-61
2023/09/29 04:10:12;;;;;;;49.75;47.20;;;;;;;;;;5044795;28;20832;-60
2023/09/29 04:12:39;;;;;;;46.33;43.90;;;;;;;;;;5046043;28;20036;-61
2023/09/29 04:15:05;;;;;;;49.45;46.90;;;;;;;;;;5044715;28;20066;-61
2023/09/29 04:17:31;;;;;;;51.50;48.85;;;;;;;;;;5045519;28;20041;-60
2023/09/29 04:19:56;;;;;;;58.35;55.33;;;;;;;;;;5045064;28;20079;-61
2023/09/29 04:22:25;;;;;;;53.58;50.85;;;;;;;;;;5049347;28;20455;-61
2023/09/29 04:24:51;;;;;;;53.28;50.53;;;;;;;;;;5045252;28;20048;-61
2023/09/29 04:27:16;;;;;;;51.03;48.25;;;;;;;;;;5044166;28;20018;-61
2023/09/29 04:29:41;;;;;;;55.28;52.33;;;;;;;;;;5043102;28;20199;-61
2023/09/29 04:32:07;;;;;;;55.95;53.05;;;;;;;;;;5042793;28;20059;-61
2023/09/29 04:34:33;;;;;;;48.85;46.33;;;;;;;;;;5045467;28;20035;-61
2023/09/29 04:36:58;;;;;;;46.78;44.33;;;;;;;;;;5043795;28;20052;-62
2023/09/29 04:39:24;;;;;;;46.67;44.28;;;;;;;;;;5045748;28;20033;-61
2023/09/29 04:41:50;;;;;;;46.40;43.95;;;;;;;;;;5043521;28;20056;-61
2023/09/29 04:44:15;;;;;;;49.75;47.20;;;;;;;;;;5043690;28;20037;-62
2023/09/29 04:46:42;;;;;;;52.28;49.58;;;;;;;;;;5041256;28;20091;-61
2023/09/29 04:49:07;;;;;;;53.88;51.10;;;;;;;;;;5045783;28;20662;-62
2023/09/29 04:51:33;;;;;;;58.90;55.53;;;;;;;;;;5046986;28;20190;-62
2023/09/29 04:53:59;;;;;;;51.00;48.35;;;;;;;;;;5041859;28;20127;-62
2023/09/29 04:56:25;;;;;;;56.88;53.95;;;;;;;;;;5040281;28;20450;-61
2023/09/29 04:58:50;;;;;;;56.45;53.60;;;;;;;;;;5045190;28;20044;-61
2023/09/29 05:01:17;;;;;;;57.65;54.70;;;;;;;;;;5045350;28;20437;-62
2023/09/29 05:03:43;;;;;;;51.85;49.10;;;;;;;;;;5047444;28;20039;-61
2023/09/29 05:06:08;;;;;;;58.30;55.20;;;;;;;;;;5048515;28;20390;-61
2023/09/29 05:08:36;;;;;;;52.08;49.35;;;;;;;;;;5041619;28;20426;-61
2023/09/29 05:11:01;;;;;;;50.95;48.30;;;;;;;;;;5045034;28;20129;-63
2023/09/29 05:13:32;;;;;;;52.55;49.83;;;;;;;;;;5044478;28;20647;-63
2023/09/29 05:16:00;;;;;;;51.17;48.58;;;;;;;;;;5045676;28;20091;-64
2023/09/29 05:18:26;;;;;;;54.92;51.53;;;;;;;;;;5041315;28;20036;-63
2023/09/29 05:20:52;;;;;;;53.13;50.38;;;;;;;;;;5048610;28;20058;-64
2023/09/29 05:23:17;;;;;;;51.78;49.03;;;;;;;;;;5048445;28;20102;-63
2023/09/29 05:25:49;;;;;;;52.40;49.15;;;;;;;;;;5042761;28;20039;-63
2023/09/29 05:28:14;;;;;;;50.78;48.13;;;;;;;;;;5044104;28;21295;-64
2023/09/29 05:30:43;;;;;;;50.80;48.10;;;;;;;;;;5044437;28;20119;-63
2023/09/29 05:33:08;;;;;;;55.65;52.80;;;;;;;;;;5042933;28;20044;-63
2023/09/29 05:35:34;;;;;;;64.40;61.00;;;;;;;;;;5044187;28;20047;-66
2023/09/29 05:38:00;;;;;;;53.85;51.10;;;;;;;;;;5043027;28;20072;-63
2023/09/29 05:40:25;;;;;;;57.70;54.60;;;;;;;;;;5041155;28;20040;-63
2023/09/29 05:42:51;;;;;;;48.75;46.25;;;;;;;;;;5042073;28;20347;-63
2023/09/29 05:45:16;;;;;;;52.30;49.50;;;;;;;;;;5042502;28;20114;-62
2023/09/29 05:47:42;;;;;;;53.95;51.20;;;;;;;;;;5043939;28;20071;-63
2023/09/29 05:50:07;;;;;;;55.70;52.83;;;;;;;;;;5047743;28;20071;-63
2023/09/29 05:52:33;;;;;;;58.85;55.58;;;;;;;;;;5041773;28;20459;-63
2023/09/29 05:54:58;;;;;;;61.75;58.53;;;;;;;;;;5039369;28;20474;-63
2023/09/29 05:57:23;;;;;;;56.65;53.45;;;;;;;;;;5039963;28;20125;-63
2023/09/29 05:59:49;;;;;;;56.70;53.85;;;;;;;;;;5042215;28;20060;-63
2023/09/29 06:02:14;;;;;;;54.30;51.50;;;;;;;;;;5041866;28;20710;-63
2023/09/29 06:04:39;;;;;;;59.35;56.28;;;;;;;;;;5022589;28;20063;-65
2023/09/29 06:07:05;;;;;;;60.20;57.15;;;;;;;;;;5046380;28;20103;-64
2023/09/29 06:09:31;;;;;;;64.75;61.45;;;;;;;;;;5041195;28;20045;-63
2023/09/29 06:11:56;;;;;;;55.60;52.78;;;;;;;;;;5037764;28;20064;-63
2023/09/29 06:14:22;;;;;;;60.38;57.33;;;;;;;;;;5039632;28;20041;-63
2023/09/29 06:16:47;;;;;;;58.67;55.67;;;;;;;;;;5044649;28;20040;-63
2023/09/29 06:19:14;;;;;;;57.42;54.55;;;;;;;;;;5040035;28;20040;-64
2023/09/29 06:21:40;;;;;;;65.60;62.28;;;;;;;;;;5037141;28;23510;-63
2023/09/29 06:24:06;;;;;;;67.78;63.05;;;;;;;;;;5038723;28;20458;-64
2023/09/29 06:26:31;;;;;;;61.55;58.45;;;;;;;;;;5041016;28;20120;-63
2023/09/29 06:28:56;;;;;;;61.65;58.53;;;;;;;;;;5040669;28;20048;-63
2023/09/29 06:31:22;;;;;;;68.60;64.80;;;;;;;;;;5036677;28;20063;-63
2023/09/29 06:33:47;;;;;;;65.22;61.88;;;;;;;;;;5041134;28;20315;-64
2023/09/29 06:36:13;;;;;;;70.13;66.55;;;;;;;;;;5040265;28;20218;-63
2023/09/29 06:38:38;;;;;;;69.35;65.85;;;;;;;;;;5041072;28;20075;-63
2023/09/29 06:41:04;;;;;;;53.78;50.90;;;;;;;;;;5040483;28;20033;-63
2023/09/29 06:43:29;;;;;;;59.95;56.90;;;;;;;;;;5042827;28;20025;-63
2023/09/29 06:45:54;;;;;;;47.63;45.05;;;;;;;;;;5046818;28;20114;-63
2023/09/29 06:48:20;;;;;;;59.33;56.35;;;;;;;;;;5041544;28;20032;-63
2023/09/29 06:50:45;;;;;;;54.13;51.33;;;;;;;;;;5042441;28;20033;-63
2023/09/29 06:53:11;;;;;;;57.58;54.58;;;;;;;;;;5046871;28;20109;-63
2023/09/29 06:55:36;;;;;;;60.15;57.05;;;;;;;;;;5043638;28;20355;-63
2023/09/29 06:58:04;;;;;;;57.10;54.00;;;;;;;;;;5044919;28;20439;-63
2023/09/29 07:00:30;;;;;;;54.03;51.20;;;;;;;;;;5040719;28;20036;-64
2023/09/29 07:02:55;;;;;;;53.30;50.47;;;;;;;;;;5046882;28;20041;-65
2023/09/29 07:05:20;;;;;;;60.20;57.00;;;;;;;;;;5034863;28;20517;-63
2023/09/29 07:07:46;;;;;;;53.78;50.83;;;;;;;;;;5033608;28;20036;-63
2023/09/29 07:10:11;;;;;;;51.28;48.63;;;;;;;;;;5040814;28;20033;-64
2023/09/29 07:12:37;;;;;;;44.80;42.40;;;;;;;;;;5040856;28;20386;-65
2023/09/29 07:15:03;;;;;;;36.70;34.78;;;;;;;;;;5041358;28;20120;-63
2023/09/29 07:17:28;;;;;;;38.63;36.60;;;;;;;;;;5043083;28;20060;-63
2023/09/29 07:19:54;;;;;;;32.67;30.90;;;;;;;;;;5047218;28;20071;-64
2023/09/29 07:22:19;;;;;;;42.28;40.05;;;;;;;;;;5047559;28;20135;-63
2023/09/29 07:24:46;;;;;;;36.40;34.00;;;;;;;;;;5048770;28;20045;-63
2023/09/29 07:27:12;;;;;;;40.35;38.15;;;;;;;;;;5046026;28;20035;-62
2023/09/29 07:29:37;;;;;;;37.88;35.78;;;;;;;;;;5043501;28;20030;-62
2023/09/29 07:32:03;;;;;;;37.10;35.20;;;;;;;;;;5046727;28;20044;-64
2023/09/29 07:34:30;;;;;;;35.10;32.90;;;;;;;;;;5045831;28;20108;-63
2023/09/29 07:36:56;;;;;;;38.15;36.13;;;;;;;;;;5046279;28;20043;-63
2023/09/29 07:39:21;;;;;;;44.05;41.67;;;;;;;;;;5041697;28;20037;-63
2023/09/29 07:41:47;;;;;;;40.45;38.15;;;;;;;;;;5043221;28;20063;-63
2023/09/29 07:44:13;;;;;;;37.72;35.63;;;;;;;;;;5043165;28;20034;-62
2023/09/29 07:46:38;;;;;;;37.88;35.75;;;;;;;;;;5042985;28;20041;-63
2023/09/29 07:49:04;;;;;;;35.38;33.50;;;;;;;;;;5045376;28;20040;-63
2023/09/29 07:51:30;;;;;;;39.97;37.83;;;;;;;;;;5043935;28;20040;-64
2023/09/29 07:53:57;;;;;;;36.97;34.97;;;;;;;;;;5043381;28;20622;-62
2023/09/29 07:56:22;;;;;;;46.00;43.42;;;;;;;;;;5042780;28;20037;-63
2023/09/29 07:58:47;;;;;;;41.03;38.92;;;;;;;;;;5042437;28;20051;-63
2023/09/29 08:01:13;;;;;;;43.90;41.60;;;;;;;;;;5043450;28;20025;-63
2023/09/29 08:03:38;;;;;;;43.72;41.45;;;;;;;;;;5040570;28;20056;-63
2023/09/29 08:06:04;;;;;;;45.40;42.90;;;;;;;;;;5042764;28;20037;-64
2023/09/29 08:08:29;;;;;;;48.38;45.90;;;;;;;;;;5040795;28;20029;-63
2023/09/29 08:10:55;;;;;;;47.70;45.25;;;;;;;;;;5042945;28;20124;-63
2023/09/29 08:13:23;;;;;;;53.80;50.92;;;;;;;;;;5043816;28;20029;-63
2023/09/29 08:15:49;;;;;;;46.03;43.60;;;;;;;;;;5043144;28;20140;-62
2023/09/29 08:18:14;;;;;;;44.17;41.90;;;;;;;;;;5043363;28;20112;-63
2023/09/29 08:20:41;;;;;;;54.63;51.60;;;;;;;;;;5039533;28;20037;-63
2023/09/29 08:23:06;;;;;;;25.60;24.20;;;;;;;;;;5045449;28;20032;-62
2023/09/29 08:25:33;;;;;;;28.33;26.83;;;;;;;;;;5046381;28;20033;-63
2023/09/29 08:28:02;;;;;;;38.88;36.83;;;;;;;;;;5044769;28;20036;-62
2023/09/29 08:30:28;;;;;;;38.13;36.03;;;;;;;;;;5044620;28;20073;-63
2023/09/29 08:32:53;;;;;;;27.58;26.08;;;;;;;;;;5046693;28;20030;-63
2023/09/29 08:35:18;;;;;;;25.48;24.08;;;;;;;;;;5043139;28;20104;-63
2023/09/29 08:37:45;;;;;;;23.98;22.67;;;;;;;;;;5042627;28;20112;-64
2023/09/29 08:40:14;;;;;;;20.95;19.75;;;;;;;;;;5048065;28;20094;-64
2023/09/29 08:42:49;;;;;;;24.50;23.10;;;;;;;;;;5041227;28;20025;-65
2023/09/29 08:45:17;;;;;;;27.67;25.83;;;;;;;;;;5046514;28;20096;-65
2023/09/29 08:47:49;;;;;;;21.60;20.30;;;;;;;;;;5044767;28;20116;-65
2023/09/29 08:50:16;;;;;;;21.48;20.27;;;;;;;;;;5046762;28;20029;-64
2023/09/29 08:52:46;;;;;;;32.70;30.95;;;;;;;;;;5039840;28;20127;-65
2023/09/29 08:55:12;;;;;;;22.42;21.13;;;;;;;;;;5045197;28;20033;-65
2023/09/29 08:57:41;;;;;;;28.20;26.58;;;;;;;;;;5049028;28;20039;-65
2023/09/29 09:00:08;;;;;;;25.33;23.92;;;;;;;;;;5043840;28;20024;-65
2023/09/29 09:02:33;;;;;;;23.45;22.13;;;;;;;;;;5043499;28;20488;-65
2023/09/29 09:04:58;;;;;;;24.38;22.98;;;;;;;;;;5045800;28;20033;-66
2023/09/29 09:07:24;;;;;;;21.70;20.48;;;;;;;;;;5043698;28;20033;-65
2023/09/29 09:09:53;;;;;;;25.33;23.92;;;;;;;;;;5042454;28;20041;-65
2023/09/29 09:12:32;;;;;;;38.33;36.22;;;;;;;;;;5045453;28;20029;-65
2023/09/29 09:14:58;;;;;;;28.02;26.50;;;;;;;;;;5044044;28;20045;-65
2023/09/29 09:17:24;;;;;;;29.85;28.17;;;;;;;;;;5047346;28;20033;-65
2023/09/29 09:19:52;;;;;;;21.75;20.55;;;;;;;;;;5043268;28;20034;-65
2023/09/29 09:22:22;;;;;;;21.50;20.23;;;;;;;;;;5045281;28;20026;-65
2023/09/29 09:24:48;;;;;;;20.20;19.10;;;;;;;;;;5045509;28;20033;-65
2023/09/29 09:27:14;;;;;;;23.90;22.60;;;;;;;;;;5046246;28;20033;-65
2023/09/29 09:29:43;;;;;;;20.40;19.20;;;;;;;;;;5048064;28;20026;-65
2023/09/29 09:32:10;;;;;;;24.40;23.00;;;;;;;;;;5045098;28;20080;-65
2023/09/29 09:34:37;;;;;;;22.50;21.30;;;;;;;;;;5044381;28;20037;-63
2023/09/29 09:37:03;;;;;;;22.40;21.15;;;;;;;;;;5047848;28;20051;-64
2023/09/29 09:39:29;;;;;;;23.40;22.13;;;;;;;;;;5040020;28;20033;-64
2023/09/29 09:41:57;;;;;;;25.38;24.00;;;;;;;;;;5044546;28;20107;-64
2023/09/29 09:44:23;;;;;;;31.63;29.92;;;;;;;;;;5042416;28;20033;-64
2023/09/29 09:47:00;;;;;;;33.35;31.65;;;;;;;;;;5042049;28;20047;-64
2023/09/29 09:49:34;;;;;;;34.45;32.55;;;;;;;;;;5039010;28;20344;-64
2023/09/29 09:52:04;;;;;;;37.35;35.45;;;;;;;;;;5044785;28;20084;-65
2023/09/29 09:54:34;;;;;;;35.50;33.60;;;;;;;;;;5040613;28;20036;-62
2023/09/29 09:57:09;;;;;;;39.40;37.40;;;;;;;;;;5042764;28;20052;-63
2023/09/29 09:59:39;;;;;;;39.17;37.13;;;;;;;;;;5042564;28;20086;-63
2023/09/29 10:02:07;;;;;;;41.72;39.55;;;;;;;;;;5044109;28;20423;-63
2023/09/29 10:04:38;;;;;;;40.05;37.95;;;;;;;;;;5041352;28;20033;-63
2023/09/29 10:07:04;;;;;;;44.80;42.50;;;;;;;;;;5046523;28;20362;-62
2023/09/29 10:09:42;;;;;;;43.28;41.03;;;;;;;;;;5046120;28;20474;-62
2023/09/29 10:12:07;;;;;;;41.08;38.88;;;;;;;;;;5039699;28;20045;-63
2023/09/29 10:14:41;;;;;;;59.60;56.55;;;;;;;;;;5042381;28;20033;-63
2023/09/29 10:17:07;;;;;;;48.92;46.42;;;;;;;;;;5042778;28;20813;-64
2023/09/29 10:19:39;;;;;;;69.45;65.95;;;;;;;;;;5043384;28;20041;-62
2023/09/29 10:22:06;;;;;;;69.47;65.97;;;;;;;;;;5046376;28;20104;-65
2023/09/29 10:24:32;;;;;;;77.35;73.40;;;;;;;;;;5039566;28;20597;-65
2023/09/29 10:27:11;;;;;;;65.63;62.25;;;;;;;;;;5041931;28;20057;-65
2023/09/29 10:29:38;;;;;;;68.68;64.95;;;;;;;;;;5042122;28;20140;-65
2023/09/29 10:32:13;;;;;;;56.13;53.28;;;;;;;;;;5044417;28;20033;-65
2023/09/29 10:34:40;;;;;;;45.60;43.22;;;;;;;;;;5043693;28;20112;-63
2023/09/29 10:37:06;;;;;;;55.58;52.78;;;;;;;;;;5042894;28;20446;-64
2023/09/29 10:39:31;;;;;;;36.97;34.67;;;;;;;;;;5042969;28;20037;-62
2023/09/29 10:42:12;;;;;;;26.80;25.27;;;;;;;;;;5042572;28;20082;-63
2023/09/29 10:44:55;;;;;;;24.75;23.45;;;;;;;;;;5042427;28;20029;-63
2023/09/29 10:47:36;;;;;;;30.02;28.42;;;;;;;;;;5045672;28;20032;-65
2023/09/29 10:50:03;;;;;;;22.45;21.25;;;;;;;;;;5041310;28;20029;-65
2023/09/29 10:52:29;;;;;;;23.73;22.42;;;;;;;;;;5044626;28;20052;-63
2023/09/29 10:54:58;;;;;;;24.65;23.25;;;;;;;;;;5040965;28;20432;-65
2023/09/29 10:57:25;;;;;;;25.03;23.63;;;;;;;;;;5044660;28;20075;-64
2023/09/29 10:59:52;;;;;;;31.05;29.40;;;;;;;;;;5042020;28;20060;-64
2023/09/29 11:02:18;;;;;;;21.55;20.25;;;;;;;;;;5042281;28;20061;-65
2023/09/29 11:04:46;;;;;;;26.20;24.75;;;;;;;;;;5024364;28;20025;-63
2023/09/29 11:07:15;;;;;;;31.70;26.00;;;;;;;;;;5041426;28;20028;-65
2023/09/29 11:09:41;;;;;;;26.45;24.95;;;;;;;;;;5041263;28;20144;-66
2023/09/29 11:12:06;;;;;;;25.88;24.48;;;;;;;;;;5041289;28;20127;-64
2023/09/29 11:14:36;;;;;;;19.13;18.02;;;;;;;;;;5033452;28;20029;-63
2023/09/29 11:17:02;;;;;;;;;;;;;;;;;;5037111;28;20458;-64
2023/09/29 11:19:30;;;;;;;20.67;19.48;;;;;;;;;;5036600;28;19912;-64
2023/09/29 11:21:58;;;;;;;27.52;26.05;;;;;;;;;;5037269;28;20052;-63
2023/09/29 11:24:24;;;;;;;28.10;26.50;;;;;;;;;;5039761;28;20413;-64
2023/09/29 11:26:55;;;;;;;21.60;20.10;;;;;;;;;;5036727;28;20161;-65
2023/09/29 11:29:23;;;;;;;20.27;19.05;;;;;;;;;;5036611;28;20063;-64
2023/09/29 11:31:55;;;;;;;19.27;18.23;;;;;;;;;;5038671;28;20120;-64
2023/09/29 11:34:21;;;;;;;21.67;20.42;;;;;;;;;;5038108;28;20063;-64
2023/09/29 11:36:48;;;;;;;21.75;20.55;;;;;;;;;;5035999;28;20060;-64
2023/09/29 11:39:18;;;;;;;22.67;21.48;;;;;;;;;;5039571;28;20036;-63
2023/09/29 11:41:47;;;;;;;23.98;22.67;;;;;;;;;;5035200;28;20032;-64
2023/09/29 11:44:14;;;;;;;21.05;19.85;;;;;;;;;;5035233;28;20589;-64
2023/09/29 11:46:39;;;;;;;23.05;21.75;;;;;;;;;;5036227;28;20028;-64
2023/09/29 11:49:05;;;;;;;24.02;22.73;;;;;;;;;;5036866;28;20451;-65
2023/09/29 11:51:31;;;;;;;27.02;25.55;;;;;;;;;;5038432;28;20037;-65
2023/09/29 11:53:56;;;;;;;26.20;24.77;;;;;;;;;;5037172;28;20480;-64
2023/09/29 11:56:22;;;;;;;19.90;18.80;;;;;;;;;;5038395;28;20116;-65
2023/09/29 11:58:47;;;;;;;20.13;19.02;;;;;;;;;;5037623;28;20021;-64
2023/09/29 12:01:13;;;;;;;20.60;19.50;;;;;;;;;;5039914;28;20033;-65
2023/09/29 12:03:39;;;;;;;20.23;19.13;;;;;;;;;;5039979;28;20025;-65
2023/09/29 12:06:04;;;;;;;23.20;21.90;;;;;;;;;;5039744;28;20033;-65
2023/09/29 12:08:30;;;;;;;24.33;23.02;;;;;;;;;;5040139;28;20429;-65
2023/09/29 12:10:55;;;;;;;23.02;21.63;;;;;;;;;;5042331;28;21153;-65
2023/09/29 12:13:21;;;;;;;22.00;20.60;;;;;;;;;;5040675;28;20052;-65
2023/09/29 12:15:46;;;;;;;22.95;21.65;;;;;;;;;;5038754;28;20048;-65
2023/09/29 12:18:13;;;;;;;20.30;19.20;;;;;;;;;;5040986;28;20040;-66
2023/09/29 12:20:39;;;;;;;20.10;18.80;;;;;;;;;;5042176;28;20671;-66
2023/09/29 12:23:06;;;;;;;20.60;19.50;;;;;;;;;;5038397;28;20108;-66
2023/09/29 12:25:32;;;;;;;21.73;20.52;;;;;;;;;;5039552;28;20102;-65
2023/09/29 12:27:58;;;;;;;20.77;19.08;;;;;;;;;;5039422;28;20102;-66
2023/09/29 12:30:24;;;;;;;23.63;22.33;;;;;;;;;;5037697;28;20691;-66
2023/09/29 12:32:50;;;;;;;23.88;22.55;;;;;;;;;;5039004;28;20033;-67
2023/09/29 12:35:16;;;;;;;23.15;21.90;;;;;;;;;;5040636;28;20102;-66
2023/09/29 12:37:45;;;;;;;23.15;21.90;;;;;;;;;;5038478;28;20024;-65
2023/09/29 12:40:15;;;;;;;26.63;25.10;;;;;;;;;;5041282;28;20048;-65
2023/09/29 12:42:47;;;;;;;22.35;21.13;;;;;;;;;;5038303;28;20064;-65
2023/09/29 12:45:17;;;;;;;23.63;22.33;;;;;;;;;;5039478;28;20425;-65
2023/09/29 12:47:43;;;;;;;;;;;;;;;;;;5041789;28;20469;-65
2023/09/29 12:50:10;;;;;;;19.63;18.55;;;;;;;;;;5038648;28;19916;-64
2023/09/29 12:52:37;;;;;;;23.25;22.00;;;;;;;;;;5037981;28;20224;-64
2023/09/29 12:55:03;;;;;;;35.15;33.30;;;;;;;;;;5038015;28;20222;-64
2023/09/29 12:57:28;;;;;;;44.40;42.15;;;;;;;;;;5040567;28;20264;-65
2023/09/29 12:59:53;;;;;;;44.85;42.55;;;;;;;;;;5038114;28;20037;-65
2023/09/29 13:02:24;;;;;;;62.70;59.47;;;;;;;;;;5038721;28;20017;-65
2023/09/29 13:04:49;;;;;;;;;;;;;;;;;;5038954;28;20102;-64
2023/09/29 13:07:14;;;;;;;67.57;64.22;;;;;;;;;;5039249;28;19946;-66
2023/09/29 13:09:40;;;;;;;77.53;73.70;;;;;;;;;;5038609;28;20120;-65
2023/09/29 13:12:05;;;;;;;79.63;75.68;;;;;;;;;;5039001;28;20033;-65
2023/09/29 13:14:31;;;;;;;80.45;76.38;;;;;;;;;;5040436;28;20389;-65
2023/09/29 13:16:58;;;;;;;76.97;73.05;;;;;;;;;;5042741;28;20040;-65
2023/09/29 13:19:23;;;;;;;73.13;69.43;;;;;;;;;;5039102;28;20603;-66
2023/09/29 13:21:49;;;;;;;75.00;71.18;;;;;;;;;;5039095;28;20036;-64
2023/09/29 13:24:14;;;;;;;71.47;67.90;;;;;;;;;;5038814;28;20045;-65
2023/09/29 13:26:41;;;;;;;66.60;63.13;;;;;;;;;;5039542;28;20122;-66
2023/09/29 13:29:07;;;;;;;66.72;63.33;;;;;;;;;;5037666;28;20052;-66
2023/09/29 13:31:33;;;;;;;64.32;60.92;;;;;;;;;;5035405;28;20119;-66
2023/09/29 13:33:59;;;;;;;63.00;59.72;;;;;;;;;;5040265;28;20049;-66
2023/09/29 13:36:24;;;;;;;60.28;57.17;;;;;;;;;;5040430;28;20029;-65
2023/09/29 13:38:49;;;;;;;66.97;62.92;;;;;;;;;;5040946;28;20303;-64
2023/09/29 13:41:15;;;;;;;57.70;54.70;;;;;;;;;;5041637;28;20032;-66
2023/09/29 13:43:40;;;;;;;63.22;59.05;;;;;;;;;;5040863;28;20039;-67
2023/09/29 13:46:06;;;;;;;65.65;62.22;;;;;;;;;;5045078;28;20039;-66
2023/09/29 13:48:32;;;;;;;76.18;72.15;;;;;;;;;;5041252;28;20036;-65
2023/09/29 13:51:03;;;;;;;103.75;98.32;;;;;;;;;;5042692;28;20068;-65
2023/09/29 13:53:29;;;;;;;79.97;75.88;;;;;;;;;;5037273;28;20044;-67
2023/09/29 13:55:54;;;;;;;103.75;97.63;;;;;;;;;;5040291;28;20037;-67
2023/09/29 13:58:20;;;;;;;92.93;87.32;;;;;;;;;;5042231;28;20371;-65
2023/09/29 14:00:49;;;;;;;110.85;104.95;;;;;;;;;;5041281;28;20114;-66
2023/09/29 14:03:15;;;;;;;102.07;96.93;;;;;;;;;;5040767;28;20421;-65
2023/09/29 14:05:41;;;;;;;109.80;104.03;;;;;;;;;;5038525;28;20043;-67
2023/09/29 14:08:07;;;;;;;108.93;103.45;;;;;;;;;;5036736;28;20540;-65
2023/09/29 14:10:32;;;;;;;111.18;105.22;;;;;;;;;;5039212;28;20064;-65
2023/09/29 14:12:58;;;;;;;109.60;103.88;;;;;;;;;;5035194;28;20088;-66
2023/09/29 14:15:24;;;;;;;112.88;106.50;;;;;;;;;;5044931;28;20038;-65